Terminal Aerodrome Forecast
Issued by NWS

Home | Current Version | Previous Version | Text Only | Print | Product List | Glossary On
Versions: 1 2 3 4 5 6 7 8 9 10 11 12 13 14 15 16 17 18 19 20 21 22 23 24 25 26 27 28 29 30 31 32 33 34 35 36 37 38 39 40 41 42 43
000
FTUS45 KGJT 220542
TAFVEL
TAF
KVEL 220542Z 2206/2306 24008KT P6SM BKN120
     FM221100 28005KT P6SM VCSH BKN040
     FM222200 26009KT P6SM VCSH BKN070
     FM222300 32009KT P6SM -RA BKN060
     FM230100 04005KT 5SM -RA BKN045
     FM230200 03004KT 4SM -RASN BKN040
     FM230300 VRB03KT 4SM -SN BKN035=

USA.gov is the U.S. government's official web portal to all federal, state and local government web resources and services.